Time;durP1;ratioP1;P1;durP2;ratioP2;P2;SDS_P1;SDS_P2;PMS_P1;PMS_P2;Temp;Humidity;BMP_temperature;BMP_pressure;BME280_temperature;BME280_humidity;BME280_pressure;Samples;Min_cycle;Max_cycle;Signal;HPM_P1;HPM_P2
2022/07/03 00:00:28;;;;;;;2.50;2.00;;;18.80;99.90;;;;;;5031586;28;20182;-67
2022/07/03 00:02:53;;;;;;;6.97;1.70;;;18.80;99.90;;;;;;5032278;28;20190;-67
2022/07/03 00:05:19;;;;;;;2.50;1.65;;;18.80;99.90;;;;;;5014779;28;20216;-67
2022/07/03 00:07:44;;;;;;;1.77;1.48;;;18.70;99.90;;;;;;5031834;28;20181;-66
2022/07/03 00:10:10;;;;;;;1.90;1.73;;;18.70;99.90;;;;;;5014665;28;20645;-67
2022/07/03 00:12:35;;;;;;;2.88;1.70;;;18.60;99.90;;;;;;5031830;28;20268;-66
2022/07/03 00:15:01;;;;;;;2.50;1.67;;;18.60;99.90;;;;;;5032295;28;20185;-67
2022/07/03 00:17:27;;;;;;;2.20;1.80;;;18.60;99.90;;;;;;5031768;28;20174;-67
2022/07/03 00:19:54;;;;;;;4.25;1.90;;;18.60;99.90;;;;;;5032248;28;20182;-67
2022/07/03 00:22:20;;;;;;;12.23;2.03;;;18.60;99.90;;;;;;5031672;28;20205;-66
2022/07/03 00:25:00;;;;;;;3.25;1.95;;;18.50;99.90;;;;;;5032146;28;20240;-67
2022/07/03 00:27:26;;;;;;;2.38;2.13;;;18.50;99.90;;;;;;5031746;28;20236;-67
2022/07/03 00:29:55;;;;;;;3.50;1.85;;;18.50;99.90;;;;;;5013927;28;20186;-67
2022/07/03 00:32:23;;;;;;;3.15;1.70;;;18.40;99.90;;;;;;5032193;28;20205;-67
2022/07/03 00:34:52;;;;;;;2.00;1.80;;;18.40;99.90;;;;;;5031968;28;20190;-67
2022/07/03 00:37:18;;;;;;;2.28;1.90;;;18.40;99.90;;;;;;5031647;28;20184;-67
2022/07/03 00:39:45;;;;;;;3.05;1.80;;;18.30;99.90;;;;;;5031773;28;20993;-67
2022/07/03 00:42:12;;;;;;;2.08;1.88;;;18.30;99.90;;;;;;5031654;28;20190;-66
2022/07/03 00:44:52;;;;;;;2.53;1.92;;;18.20;99.90;;;;;;5031562;28;20174;-67
2022/07/03 00:47:20;;;;;;;4.40;1.90;;;18.20;99.90;;;;;;5024051;28;20189;-67
2022/07/03 00:49:48;;;;;;;2.20;1.98;;;18.10;99.90;;;;;;5029543;28;20192;-66
2022/07/03 00:52:16;;;;;;;3.33;2.15;;;18.10;99.90;;;;;;5031833;28;20186;-67
2022/07/03 00:54:50;;;;;;;2.10;1.90;;;18.10;99.90;;;;;;5031202;28;20231;-66
2022/07/03 00:57:17;;;;;;;1.92;1.75;;;18.00;99.90;;;;;;5031535;28;20209;-67
2022/07/03 00:59:43;;;;;;;2.08;1.88;;;18.00;99.90;;;;;;5013278;28;20189;-67
2022/07/03 01:02:19;;;;;;;3.13;1.75;;;18.00;99.90;;;;;;5031089;28;20241;-67
2022/07/03 01:05:11;;;;;;;3.30;2.05;;;18.00;99.90;;;;;;5025340;28;20219;-67
2022/07/03 01:07:44;;;;;;;2.08;1.67;;;17.90;99.90;;;;;;5031462;28;20717;-66
2022/07/03 01:10:09;;;;;;;1.98;1.67;;;17.90;99.90;;;;;;5030529;28;20201;-67
2022/07/03 01:12:47;;;;;;;2.47;1.85;;;17.80;99.90;;;;;;5030834;28;20208;-67
2022/07/03 01:15:24;;;;;;;2.03;1.50;;;17.80;99.90;;;;;;5029251;28;20178;-67
2022/07/03 01:18:14;;;;;;;1.70;1.60;;;17.70;99.90;;;;;;5011918;28;20664;-67
2022/07/03 01:20:43;;;;;;;3.15;1.75;;;17.70;99.90;;;;;;5023745;28;20171;-67
2022/07/03 01:23:30;;;;;;;1.90;1.80;;;17.70;99.90;;;;;;5029937;28;20190;-67
2022/07/03 01:26:00;;;;;;;3.22;1.70;;;17.70;99.90;;;;;;5012620;28;20236;-67
2022/07/03 01:28:26;;;;;;;2.13;1.60;;;17.70;99.90;;;;;;5029677;28;20181;-66
2022/07/03 01:30:54;;;;;;;2.60;1.90;;;17.60;99.90;;;;;;5033172;28;20178;-67
2022/07/03 01:33:22;;;;;;;3.25;1.30;;;17.60;99.90;;;;;;5035311;28;20184;-67
2022/07/03 01:36:00;;;;;;;3.67;1.52;;;17.60;99.90;;;;;;5035055;28;20182;-67
2022/07/03 01:38:28;;;;;;;2.65;1.73;;;17.50;99.90;;;;;;5034961;28;20288;-66
2022/07/03 01:40:55;;;;;;;1.70;1.60;;;17.50;99.90;;;;;;5034691;28;20186;-67
2022/07/03 01:43:29;;;;;;;3.58;1.75;;;17.40;99.90;;;;;;5016904;28;20689;-67
2022/07/03 01:45:57;;;;;;;1.98;1.77;;;17.40;99.90;;;;;;5031490;28;20229;-67
2022/07/03 01:48:24;;;;;;;4.25;2.10;;;17.30;99.90;;;;;;5034983;28;20685;-67
2022/07/03 01:50:50;;;;;;;2.67;1.80;;;17.30;99.90;;;;;;5034205;28;20192;-67
2022/07/03 01:53:16;;;;;;;5.03;1.63;;;17.30;99.90;;;;;;5034770;28;20185;-66
2022/07/03 01:55:42;;;;;;;1.83;1.58;;;17.30;99.90;;;;;;5034880;28;20186;-66
2022/07/03 01:58:09;;;;;;;6.57;1.73;;;17.20;99.90;;;;;;5033889;28;20186;-67
2022/07/03 02:00:56;;;;;;;2.10;1.80;;;17.20;99.90;;;;;;5034260;28;20186;-67
2022/07/03 02:03:31;;;;;;;2.47;1.50;;;17.10;99.90;;;;;;5016693;28;20209;-67
2022/07/03 02:06:11;;;;;;;1.52;1.42;;;17.10;99.90;;;;;;5034836;28;20633;-67
2022/07/03 02:08:40;;;;;;;5.65;1.83;;;17.10;99.90;;;;;;5034544;28;20257;-67
2022/07/03 02:11:14;;;;;;;2.05;1.55;;;17.00;99.90;;;;;;5033972;28;20210;-67
2022/07/03 02:13:54;;;;;;;1.80;1.60;;;17.00;99.90;;;;;;5031068;28;20180;-67
2022/07/03 02:16:23;;;;;;;1.75;1.63;;;17.00;99.90;;;;;;5034282;28;20178;-67
2022/07/03 02:19:03;;;;;;;3.15;2.00;;;16.90;99.90;;;;;;5034497;28;20718;-67
2022/07/03 02:21:30;;;;;;;4.85;1.80;;;16.90;99.90;;;;;;5033644;28;20544;-67
2022/07/03 02:24:06;;;;;;;3.72;1.77;;;16.80;99.90;;;;;;5034526;28;20209;-67
2022/07/03 02:26:38;;;;;;;1.70;1.60;;;16.80;99.90;;;;;;5033960;28;20668;-67
2022/07/03 02:29:06;;;;;;;4.25;1.40;;;16.80;99.90;;;;;;5034068;28;20597;-67
2022/07/03 02:31:39;;;;;;;2.03;1.92;;;16.70;99.90;;;;;;5033774;28;20185;-67
2022/07/03 02:34:06;;;;;;;1.80;1.70;;;16.70;99.90;;;;;;5033959;28;20192;-67
2022/07/03 02:36:33;;;;;;;2.15;1.90;;;16.70;99.90;;;;;;5016601;28;20189;-67
2022/07/03 02:38:59;;;;;;;1.60;1.50;;;16.70;99.90;;;;;;5033820;28;20696;-67
2022/07/03 02:41:45;;;;;;;2.00;1.70;;;16.70;99.90;;;;;;5032573;28;20193;-67
2022/07/03 02:44:23;;;;;;;1.60;1.45;;;16.70;99.90;;;;;;5031475;28;20224;-67
2022/07/03 02:47:06;;;;;;;2.35;1.90;;;16.70;99.90;;;;;;5018223;28;20213;-67
2022/07/03 02:49:52;;;;;;;2.78;1.63;;;16.70;99.90;;;;;;5031916;28;20549;-67
2022/07/03 02:52:43;;;;;;;3.25;1.60;;;16.60;99.90;;;;;;5032682;28;20185;-67
2022/07/03 02:55:38;;;;;;;2.20;1.55;;;16.60;99.90;;;;;;5033302;28;20507;-67
2022/07/03 02:58:22;;;;;;;1.60;1.50;;;16.50;99.90;;;;;;5033918;28;20970;-67
2022/07/03 03:01:07;;;;;;;1.80;1.70;;;16.50;99.90;;;;;;5033181;28;20189;-67
2022/07/03 03:03:34;;;;;;;2.05;1.77;;;16.50;99.90;;;;;;5033261;28;20182;-67
2022/07/03 03:06:04;;;;;;;1.90;1.80;;;16.50;99.90;;;;;;5015881;28;20249;-67
2022/07/03 03:08:35;;;;;;;2.15;1.80;;;16.50;99.90;;;;;;5033507;28;20216;-66
2022/07/03 03:11:06;;;;;;;3.13;1.80;;;16.50;99.90;;;;;;5033533;28;20645;-67
2022/07/03 03:13:32;;;;;;;3.58;1.92;;;16.50;99.90;;;;;;5032967;28;20323;-67
2022/07/03 03:16:08;;;;;;;3.60;1.70;;;16.40;99.90;;;;;;5033365;28;20265;-67
2022/07/03 03:18:36;;;;;;;2.28;1.58;;;16.40;99.90;;;;;;5032818;28;20304;-67
2022/07/03 03:21:03;;;;;;;2.03;1.80;;;16.40;99.90;;;;;;5033373;28;20167;-67
2022/07/03 03:23:54;;;;;;;2.42;1.52;;;16.30;99.90;;;;;;5015387;28;20178;-67
2022/07/03 03:26:24;;;;;;;1.70;1.60;;;16.30;99.90;;;;;;5032689;28;20225;-67
2022/07/03 03:28:50;;;;;;;6.22;1.80;;;16.30;99.90;;;;;;5033038;28;20174;-67
2022/07/03 03:31:18;;;;;;;2.35;1.55;;;16.30;99.90;;;;;;5033045;28;20328;-67
2022/07/03 03:33:46;;;;;;;3.67;1.90;;;16.20;99.90;;;;;;5032946;28;20174;-67
2022/07/03 03:36:18;;;;;;;2.03;1.83;;;16.20;99.90;;;;;;5032870;28;20260;-67
2022/07/03 03:38:44;;;;;;;1.95;1.50;;;16.20;99.90;;;;;;5032581;28;20210;-67
2022/07/03 03:41:10;;;;;;;3.92;1.65;;;16.20;99.90;;;;;;5032911;28;20186;-67
2022/07/03 03:43:36;;;;;;;3.45;1.90;;;16.20;99.90;;;;;;5014785;28;20197;-67
2022/07/03 03:46:02;;;;;;;4.10;1.98;;;16.20;99.90;;;;;;5032602;28;20296;-67
2022/07/03 03:48:29;;;;;;;1.92;1.70;;;16.20;99.90;;;;;;5032709;28;20229;-67
2022/07/03 03:50:56;;;;;;;1.67;1.58;;;16.20;99.90;;;;;;5032461;28;20208;-67
2022/07/03 03:53:23;;;;;;;2.22;1.60;;;16.10;99.90;;;;;;5032461;28;20185;-67
2022/07/03 03:55:54;;;;;;;1.67;1.58;;;16.10;99.90;;;;;;5032355;28;20196;-67
2022/07/03 03:58:20;;;;;;;2.33;1.80;;;16.20;99.90;;;;;;5032569;28;20759;-67
2022/07/03 04:00:45;;;;;;;2.40;1.63;;;16.20;99.90;;;;;;5032501;28;20265;-67
2022/07/03 04:03:11;;;;;;;3.08;1.80;;;16.20;99.90;;;;;;5031725;28;20198;-67
2022/07/03 04:05:37;;;;;;;2.50;1.52;;;16.30;99.90;;;;;;5032327;28;20288;-66
2022/07/03 04:08:02;;;;;;;2.17;1.73;;;16.20;99.90;;;;;;5032407;28;20210;-67
2022/07/03 04:10:28;;;;;;;1.80;1.58;;;16.20;99.90;;;;;;5031642;28;20185;-67
2022/07/03 04:12:53;;;;;;;1.75;1.40;;;16.20;99.90;;;;;;5032206;28;20186;-66
2022/07/03 04:15:19;;;;;;;1.50;1.40;;;16.20;99.90;;;;;;5032484;28;20239;-67
2022/07/03 04:17:44;;;;;;;1.77;1.67;;;16.20;99.90;;;;;;5033707;28;20222;-66
2022/07/03 04:20:10;;;;;;;3.97;1.80;;;16.20;99.90;;;;;;5032601;28;20193;-67
2022/07/03 04:22:36;;;;;;;3.53;2.00;;;16.40;99.90;;;;;;5031991;28;20201;-67
2022/07/03 04:25:01;;;;;;;2.25;2.05;;;16.60;99.90;;;;;;5014027;28;20733;-67
2022/07/03 04:27:27;;;;;;;3.72;2.40;;;17.00;99.90;;;;;;5031513;28;20193;-67
2022/07/03 04:29:52;;;;;;;2.10;2.00;;;17.40;99.90;;;;;;5032088;28;20186;-67
2022/07/03 04:32:18;;;;;;;3.25;2.20;;;17.90;99.90;;;;;;5013717;28;20182;-67
2022/07/03 04:34:44;;;;;;;2.83;2.10;;;18.40;99.90;;;;;;5031936;28;20182;-67
2022/07/03 04:37:09;;;;;;;7.70;1.80;;;18.80;99.90;;;;;;5031823;28;20542;-67
2022/07/03 04:39:35;;;;;;;2.92;1.92;;;19.30;99.90;;;;;;5032031;28;20225;-67
2022/07/03 04:42:00;;;;;;;1.85;1.73;;;19.80;99.90;;;;;;5031608;28;20189;-67
2022/07/03 04:44:26;;;;;;;2.45;1.70;;;20.30;99.90;;;;;;5031636;28;20182;-67
2022/07/03 04:46:51;;;;;;;3.22;1.88;;;20.70;99.90;;;;;;5030824;28;20735;-67
2022/07/03 04:49:17;;;;;;;2.63;1.80;;;21.20;99.90;;;;;;5028865;28;20183;-68
2022/07/03 04:51:42;;;;;;;2.70;1.60;;;21.60;99.90;;;;;;5022681;28;20659;-67
2022/07/03 04:54:08;;;;;;;2.35;1.70;;;22.00;99.90;;;;;;5030684;28;20262;-67
2022/07/03 04:56:34;;;;;;;2.47;1.50;;;22.50;99.90;;;;;;5031484;28;20468;-67
2022/07/03 04:58:59;;;;;;;1.48;1.38;;;22.80;99.70;;;;;;5031269;28;20728;-67
2022/07/03 05:01:25;;;;;;;2.65;1.50;;;23.30;99.10;;;;;;5031006;28;20186;-67
2022/07/03 05:03:50;;;;;;;2.28;1.83;;;23.70;98.20;;;;;;5030507;28;20178;-68
2022/07/03 05:06:16;;;;;;;1.90;1.70;;;23.90;97.40;;;;;;5030546;28;20214;-68
2022/07/03 05:08:41;;;;;;;1.75;1.65;;;24.30;96.70;;;;;;5031345;28;20266;-68
2022/07/03 05:11:08;;;;;;;1.90;1.70;;;24.70;95.40;;;;;;5013578;28;20193;-67
2022/07/03 05:13:33;;;;;;;1.90;1.70;;;25.00;94.30;;;;;;5030894;28;20179;-68
2022/07/03 05:15:59;;;;;;;2.20;1.60;;;25.30;93.50;;;;;;5031469;28;20235;-68
2022/07/03 05:18:24;;;;;;;2.40;1.70;;;25.70;92.80;;;;;;5031048;28;20182;-68
2022/07/03 05:20:50;;;;;;;3.72;1.40;;;26.00;91.90;;;;;;5013223;28;20195;-65
2022/07/03 05:23:16;;;;;;;2.13;1.67;;;26.30;91.00;;;;;;5030954;28;20189;-65
2022/07/03 05:25:41;;;;;;;2.72;1.60;;;26.50;90.20;;;;;;5029342;28;20210;-65
2022/07/03 05:28:07;;;;;;;1.88;1.77;;;26.80;89.40;;;;;;5030704;28;20178;-65
2022/07/03 05:30:32;;;;;;;3.88;1.70;;;27.10;88.30;;;;;;5030856;28;20174;-65
2022/07/03 05:32:58;;;;;;;2.17;1.48;;;27.40;86.90;;;;;;5012963;28;20189;-65
2022/07/03 05:35:24;;;;;;;3.63;1.80;;;27.70;85.30;;;;;;5030350;28;20182;-66
2022/07/03 05:37:49;;;;;;;1.70;1.30;;;28.00;83.20;;;;;;5029829;28;20193;-65
2022/07/03 05:40:15;;;;;;;2.38;1.60;;;28.30;82.60;;;;;;5030343;28;20222;-66
2022/07/03 05:42:41;;;;;;;1.52;1.40;;;28.50;81.30;;;;;;5030457;28;20200;-65
2022/07/03 05:45:07;;;;;;;1.77;1.67;;;28.80;79.90;;;;;;5030325;28;20209;-66
2022/07/03 05:47:33;;;;;;;4.07;1.83;;;29.10;78.50;;;;;;5027996;28;20190;-66
2022/07/03 05:49:58;;;;;;;2.45;1.88;;;29.50;76.70;;;;;;5030349;28;20236;-66
2022/07/03 05:52:24;;;;;;;2.20;1.40;;;29.80;75.60;;;;;;5030746;28;20593;-66
2022/07/03 05:54:49;;;;;;;3.78;1.45;;;30.20;72.80;;;;;;5031120;28;20186;-66
2022/07/03 05:57:15;;;;;;;2.75;1.40;;;30.50;69.90;;;;;;5030680;28;20190;-66
2022/07/03 05:59:40;;;;;;;3.30;1.35;;;30.60;68.50;;;;;;5030114;28;20194;-66
2022/07/03 06:02:07;;;;;;;2.35;1.33;;;30.90;67.40;;;;;;5030207;28;20182;-66
2022/07/03 06:04:32;;;;;;;2.95;1.40;;;31.20;66.70;;;;;;5029397;28;20642;-66
2022/07/03 06:06:58;;;;;;;2.67;1.38;;;31.60;65.30;;;;;;5030241;28;20753;-65
2022/07/03 06:09:23;;;;;;;1.70;1.30;;;32.00;63.80;;;;;;5030666;28;20551;-66
2022/07/03 06:11:49;;;;;;;6.35;2.05;;;32.30;62.20;;;;;;5029991;28;20186;-66
2022/07/03 06:14:15;;;;;;;2.00;1.33;;;32.60;60.80;;;;;;5030073;28;20240;-66
2022/07/03 06:16:41;;;;;;;1.40;1.30;;;33.00;60.20;;;;;;5030962;28;20193;-66
2022/07/03 06:19:06;;;;;;;1.48;1.35;;;33.30;58.90;;;;;;5033429;28;20189;-66
2022/07/03 06:21:33;;;;;;;2.67;1.20;;;33.60;57.40;;;;;;5034208;28;20671;-66
2022/07/03 06:23:59;;;;;;;4.28;1.27;;;33.90;57.20;;;;;;5033570;28;20216;-66
2022/07/03 06:26:25;;;;;;;2.58;1.20;;;34.30;56.40;;;;;;5031827;28;20304;-66
2022/07/03 06:28:51;;;;;;;2.85;1.30;;;34.70;54.90;;;;;;5034049;28;20662;-66
2022/07/03 06:31:17;;;;;;;2.55;1.40;;;35.10;54.10;;;;;;5033960;28;20182;-66
2022/07/03 06:33:43;;;;;;;2.08;1.25;;;35.40;52.90;;;;;;5033612;28;20541;-66
2022/07/03 06:36:08;;;;;;;5.85;1.30;;;35.80;52.00;;;;;;5034346;28;20196;-66
2022/07/03 06:38:34;;;;;;;1.33;1.10;;;36.00;51.40;;;;;;5028468;28;20210;-65
2022/07/03 06:40:59;;;;;;;1.00;1.00;;;36.30;50.50;;;;;;5036332;28;20603;-65
2022/07/03 06:43:25;;;;;;;1.15;1.02;;;36.50;50.00;;;;;;5033598;28;20184;-65
2022/07/03 06:45:50;;;;;;;1.23;1.00;;;36.90;49.30;;;;;;5033745;28;20212;-65
2022/07/03 06:48:16;;;;;;;2.80;0.98;;;37.20;48.80;;;;;;5034086;28;20189;-65
2022/07/03 06:50:41;;;;;;;1.38;1.20;;;37.60;47.90;;;;;;5033342;28;20273;-65
2022/07/03 06:53:07;;;;;;;1.02;0.93;;;37.80;47.90;;;;;;5033297;28;20182;-65
2022/07/03 06:55:33;;;;;;;1.30;1.20;;;38.20;47.20;;;;;;5033978;28;20632;-65
2022/07/03 06:57:58;;;;;;;1.40;1.23;;;38.20;47.00;;;;;;5026883;28;20587;-65
2022/07/03 07:00:24;;;;;;;1.25;1.15;;;38.30;47.10;;;;;;5033736;28;20268;-65
2022/07/03 07:02:49;;;;;;;0.90;0.90;;;38.40;46.80;;;;;;5033700;28;20548;-65
2022/07/03 07:05:15;;;;;;;1.63;1.10;;;38.70;46.40;;;;;;5032999;28;20177;-65
2022/07/03 07:07:41;;;;;;;2.33;1.70;;;38.90;45.40;;;;;;5033350;28;20192;-65
2022/07/03 07:10:07;;;;;;;2.25;1.20;;;38.90;45.00;;;;;;5033490;28;20213;-64
2022/07/03 07:12:32;;;;;;;1.65;1.30;;;38.10;45.40;;;;;;5032889;28;20189;-63
2022/07/03 07:14:58;;;;;;;1.67;1.13;;;38.00;45.30;;;;;;5033101;28;20556;-66
2022/07/03 07:17:23;;;;;;;1.13;1.02;;;37.70;45.50;;;;;;5032763;28;20186;-66
2022/07/03 07:19:49;;;;;;;1.02;0.90;;;37.60;45.90;;;;;;5032859;28;20177;-70
2022/07/03 07:22:14;;;;;;;1.95;1.00;;;37.50;45.80;;;;;;5033443;28;20247;-73
2022/07/03 07:24:40;;;;;;;1.30;1.13;;;36.80;44.90;;;;;;5032889;28;20271;-72
2022/07/03 07:27:05;;;;;;;1.85;1.00;;;36.50;46.40;;;;;;5032863;28;20626;-68
2022/07/03 07:29:31;;;;;;;1.05;1.05;;;36.40;46.70;;;;;;5032292;28;20189;-67
2022/07/03 07:31:56;;;;;;;0.80;0.80;;;36.20;48.00;;;;;;5033101;28;20261;-69
2022/07/03 07:34:22;;;;;;;0.70;0.70;;;36.40;47.00;;;;;;5032751;28;20200;-67
2022/07/03 07:36:47;;;;;;;0.80;0.80;;;36.60;47.10;;;;;;5032617;28;20190;-66
2022/07/03 07:39:13;;;;;;;2.38;1.10;;;36.50;46.60;;;;;;5032603;28;20241;-69
2022/07/03 07:41:39;;;;;;;0.98;0.85;;;36.70;47.10;;;;;;5032792;28;20213;-70
2022/07/03 07:44:04;;;;;;;0.90;0.90;;;36.60;46.00;;;;;;5032591;28;20174;-65
2022/07/03 07:46:30;;;;;;;0.65;0.65;;;36.50;45.20;;;;;;5032439;28;20279;-69
2022/07/03 07:48:56;;;;;;;0.68;0.68;;;36.30;46.10;;;;;;5015369;28;20182;-71
2022/07/03 07:51:21;;;;;;;0.82;0.82;;;36.00;45.80;;;;;;5031201;28;20185;-69
2022/07/03 07:53:47;;;;;;;1.00;0.90;;;36.10;45.60;;;;;;5032803;28;20187;-69
2022/07/03 07:56:12;;;;;;;0.88;0.70;;;36.40;46.00;;;;;;5032015;28;20807;-69
2022/07/03 07:58:38;;;;;;;2.03;0.77;;;36.60;44.20;;;;;;5028061;28;20276;-69
2022/07/03 08:06:31;;;;;;;1.48;1.00;;;36.30;43.90;;;;;;5032332;28;20220;-68
2022/07/03 08:08:57;;;;;;;2.45;1.10;;;35.60;43.30;;;;;;5031878;28;20186;-68
2022/07/03 08:11:22;;;;;;;4.43;2.45;;;34.60;44.10;;;;;;5036365;28;20177;-68
2022/07/03 08:13:48;;;;;;;1.83;1.10;;;33.90;46.50;;;;;;5032332;28;20184;-69
2022/07/03 08:16:14;;;;;;;0.90;0.90;;;33.40;46.80;;;;;;5029573;28;20545;-68
2022/07/03 08:18:40;;;;;;;0.70;0.70;;;33.10;47.60;;;;;;5032643;28;20597;-69
2022/07/03 08:21:05;;;;;;;1.70;0.77;;;33.20;47.60;;;;;;5014823;28;20185;-69
2022/07/03 08:23:31;;;;;;;0.80;0.80;;;33.50;49.30;;;;;;5032390;28;20600;-69
2022/07/03 08:25:56;;;;;;;1.30;0.80;;;33.80;48.00;;;;;;5032433;28;20255;-69
2022/07/03 08:28:22;;;;;;;0.98;0.77;;;33.80;47.30;;;;;;5031930;28;20209;-70
2022/07/03 08:30:48;;;;;;;1.02;0.93;;;34.30;47.80;;;;;;5031191;28;20223;-69
2022/07/03 08:33:14;;;;;;;0.60;0.60;;;34.60;47.30;;;;;;5019434;28;20388;-69
2022/07/03 08:35:39;;;;;;;0.70;0.70;;;34.80;46.60;;;;;;5012721;28;20633;-69
2022/07/03 08:38:05;;;;;;;0.82;0.70;;;34.80;46.80;;;;;;4995059;28;20512;-68
2022/07/03 08:40:31;;;;;;;0.60;0.60;;;35.10;45.60;;;;;;5013394;28;20284;-70
2022/07/03 08:42:58;;;;;;;0.77;0.57;;;35.00;45.20;;;;;;5012620;28;20201;-68
2022/07/03 08:45:25;;;;;;;1.33;1.23;;;34.80;44.60;;;;;;5031927;28;20186;-68
2022/07/03 08:47:54;;;;;;;0.73;0.73;;;34.60;45.00;;;;;;5032343;28;20251;-68
2022/07/03 08:50:20;;;;;;;0.88;0.88;;;34.40;45.60;;;;;;5031533;28;20220;-68
2022/07/03 08:52:47;;;;;;;0.88;0.70;;;33.90;45.30;;;;;;5031589;28;20190;-67
2022/07/03 08:55:13;;;;;;;1.48;1.02;;;33.50;46.30;;;;;;5031803;28;20181;-68
2022/07/03 08:57:40;;;;;;;1.17;0.70;;;33.20;46.90;;;;;;5031977;28;20185;-68
2022/07/03 09:00:09;;;;;;;1.00;0.73;;;33.20;47.50;;;;;;5013727;28;20182;-68
2022/07/03 09:02:34;;;;;;;1.95;0.77;;;33.10;47.10;;;;;;5031725;28;20182;-68
2022/07/03 09:05:02;;;;;;;0.63;0.63;;;32.90;47.50;;;;;;5031338;28;20224;-66
2022/07/03 09:07:33;;;;;;;1.10;0.82;;;33.20;48.00;;;;;;5030788;28;20236;-68
2022/07/03 09:09:59;;;;;;;1.75;0.80;;;33.60;46.50;;;;;;5030733;28;20239;-68
2022/07/03 09:12:25;;;;;;;0.68;0.68;;;33.90;45.10;;;;;;5026731;28;20185;-68
2022/07/03 09:14:51;;;;;;;1.05;0.95;;;33.80;43.90;;;;;;5032020;28;20182;-68
2022/07/03 09:17:17;;;;;;;1.42;0.68;;;33.60;46.00;;;;;;5031276;28;20181;-67
2022/07/03 09:19:43;;;;;;;0.82;0.82;;;33.60;45.70;;;;;;5031693;28;20236;-68
2022/07/03 09:22:36;;;;;;;0.77;0.63;;;33.90;46.60;;;;;;5031587;28;20178;-68
2022/07/03 09:25:08;;;;;;;1.00;1.00;;;33.90;45.00;;;;;;5012089;28;20175;-67
2022/07/03 09:27:35;;;;;;;0.75;0.57;;;33.80;46.30;;;;;;5013472;28;20200;-67
2022/07/03 09:30:05;;;;;;;2.28;0.77;;;33.60;44.50;;;;;;5013064;28;20537;-67
2022/07/03 09:32:36;;;;;;;0.70;0.70;;;33.60;45.60;;;;;;5031654;28;20178;-67
2022/07/03 09:35:25;;;;;;;0.60;0.60;;;33.60;45.80;;;;;;5031191;28;20230;-68
2022/07/03 09:37:56;;;;;;;3.50;1.25;;;34.00;45.70;;;;;;5031281;28;20182;-67
2022/07/03 09:40:23;;;;;;;0.80;0.60;;;34.30;45.00;;;;;;5031374;28;20602;-67
2022/07/03 09:43:04;;;;;;;0.60;0.60;;;33.70;44.00;;;;;;5031574;28;20264;-67
2022/07/03 09:45:50;;;;;;;0.70;0.70;;;33.70;46.70;;;;;;5030972;28;20205;-67
2022/07/03 09:48:34;;;;;;;1.20;0.70;;;33.90;45.20;;;;;;5031142;28;20201;-67
2022/07/03 09:51:19;;;;;;;0.75;0.60;;;34.00;45.50;;;;;;5019059;28;20185;-67
2022/07/03 09:53:58;;;;;;;1.45;0.50;;;34.00;43.00;;;;;;5034315;28;20182;-68
2022/07/03 09:56:26;;;;;;;1.42;0.80;;;33.80;43.40;;;;;;5030540;28;20185;-67
2022/07/03 09:59:18;;;;;;;0.80;0.80;;;33.90;43.50;;;;;;5022475;28;20193;-67
2022/07/03 10:01:46;;;;;;;0.80;0.80;;;33.70;44.50;;;;;;5027230;28;20586;-67
2022/07/03 10:04:15;;;;;;;1.15;1.05;;;33.50;45.90;;;;;;5035457;28;20182;-66
2022/07/03 10:06:58;;;;;;;1.77;1.23;;;33.30;46.30;;;;;;5006526;28;20222;-66
2022/07/03 10:09:25;;;;;;;0.73;0.73;;;33.10;45.80;;;;;;5026947;28;20665;-66
2022/07/03 10:11:51;;;;;;;2.22;0.70;;;33.30;46.90;;;;;;5023435;28;20182;-66
2022/07/03 10:14:19;;;;;;;0.63;0.60;;;33.20;46.30;;;;;;5015248;28;20186;-66
2022/07/03 10:16:46;;;;;;;0.80;0.77;;;33.10;47.60;;;;;;5034130;28;20274;-67
2022/07/03 10:19:15;;;;;;;2.35;1.60;;;33.30;46.30;;;;;;5040719;28;20628;-67
2022/07/03 10:21:42;;;;;;;1.75;0.70;;;33.60;47.10;;;;;;5017032;28;20244;-66
2022/07/03 10:24:09;;;;;;;1.67;0.90;;;33.60;47.50;;;;;;5034770;28;20186;-66
2022/07/03 10:26:35;;;;;;;0.68;0.55;;;33.80;46.80;;;;;;5036006;28;20699;-66
2022/07/03 10:29:02;;;;;;;0.52;0.52;;;33.90;45.80;;;;;;5046610;28;20244;-67
2022/07/03 10:31:27;;;;;;;0.80;0.75;;;33.70;43.80;;;;;;5035483;28;20216;-66
2022/07/03 10:33:54;;;;;;;0.70;0.70;;;33.90;45.30;;;;;;5034991;28;20201;-66
2022/07/03 10:36:20;;;;;;;0.68;0.60;;;34.10;44.30;;;;;;5034105;28;20673;-67
2022/07/03 10:38:48;;;;;;;1.23;0.80;;;34.20;44.70;;;;;;5034385;28;20774;-66
2022/07/03 10:46:42;;;;;;;0.70;0.70;;;34.60;44.80;;;;;;5044248;28;20521;-66
2022/07/03 10:49:12;;;;;;;2.50;0.60;;;34.40;44.60;;;;;;5033296;28;20175;-66
2022/07/03 10:52:01;;;;;;;0.80;0.80;;;34.10;44.00;;;;;;5033878;28;20281;-65
2022/07/03 10:54:31;;;;;;;2.15;1.20;;;33.80;44.80;;;;;;5034304;28;20695;-65
2022/07/03 10:57:02;;;;;;;3.15;0.95;;;33.70;45.00;;;;;;5031693;28;20180;-66
2022/07/03 10:59:36;;;;;;;0.95;0.77;;;33.60;44.60;;;;;;5030059;28;20178;-65
2022/07/03 11:02:21;;;;;;;0.85;0.85;;;33.50;45.60;;;;;;5033663;28;20165;-66
2022/07/03 11:07:32;;;;;;;1.17;1.00;;;33.70;46.00;;;;;;5025752;28;20241;-67
2022/07/03 11:10:12;;;;;;;0.85;0.80;;;33.90;45.70;;;;;;5022686;28;20204;-65
2022/07/03 11:13:17;;;;;;;1.40;0.68;;;33.80;44.50;;;;;;5033871;28;20181;-66
2022/07/03 11:15:46;;;;;;;0.73;0.65;;;33.50;43.70;;;;;;5033949;28;20201;-65
2022/07/03 11:18:26;;;;;;;0.47;0.40;;;33.60;45.50;;;;;;5034008;28;20186;-66
2022/07/03 11:20:52;;;;;;;1.23;0.70;;;33.80;44.60;;;;;;5034052;28;20178;-66
2022/07/03 11:23:26;;;;;;;1.48;0.77;;;33.90;45.40;;;;;;5034008;28;20178;-66
2022/07/03 11:25:57;;;;;;;2.28;1.70;;;33.70;45.00;;;;;;5033758;28;20316;-66
2022/07/03 11:28:32;;;;;;;0.90;0.80;;;33.60;44.20;;;;;;5033799;28;20196;-66
2022/07/03 11:31:18;;;;;;;0.68;0.68;;;33.90;44.30;;;;;;5015944;28;20170;-66
2022/07/03 11:33:45;;;;;;;4.55;1.10;;;34.00;44.90;;;;;;5033717;28;20190;-66
2022/07/03 11:36:17;;;;;;;1.85;0.73;;;34.20;45.30;;;;;;5033247;28;20178;-66
2022/07/03 11:39:04;;;;;;;1.85;0.95;;;33.90;43.40;;;;;;5026383;28;20846;-66
2022/07/03 11:41:43;;;;;;;2.20;0.80;;;33.70;43.90;;;;;;5006024;28;20272;-69
2022/07/03 11:44:13;;;;;;;1.40;1.02;;;33.50;44.80;;;;;;5030759;28;20591;-68
2022/07/03 11:46:39;;;;;;;3.17;0.82;;;33.60;44.60;;;;;;5032719;28;20210;-68
2022/07/03 11:49:35;;;;;;;0.50;0.50;;;33.50;44.60;;;;;;5032484;28;20535;-67
2022/07/03 11:52:03;;;;;;;1.05;0.90;;;33.50;45.50;;;;;;5012410;28;20197;-68
2022/07/03 11:54:33;;;;;;;2.22;0.80;;;33.50;45.60;;;;;;5032948;28;20209;-68
2022/07/03 11:57:00;;;;;;;0.85;0.70;;;33.70;45.40;;;;;;5033040;28;20212;-67
2022/07/03 11:59:26;;;;;;;0.70;0.70;;;33.70;44.30;;;;;;5031561;28;20190;-68
2022/07/03 12:01:51;;;;;;;1.08;0.80;;;33.70;45.30;;;;;;5032646;28;20182;-68
2022/07/03 12:04:22;;;;;;;0.80;0.80;;;33.70;44.40;;;;;;5032668;28;20182;-68
2022/07/03 12:06:51;;;;;;;0.60;0.60;;;33.90;44.40;;;;;;5032774;28;20213;-67
2022/07/03 12:09:23;;;;;;;0.95;0.73;;;33.90;43.50;;;;;;5032781;28;20174;-67
2022/07/03 12:12:08;;;;;;;1.45;0.68;;;33.70;45.30;;;;;;5032870;28;20182;-67
2022/07/03 12:14:34;;;;;;;0.93;0.60;;;33.70;44.50;;;;;;5030949;28;20190;-67
2022/07/03 12:16:59;;;;;;;0.68;0.60;;;33.70;45.10;;;;;;5014461;28;20518;-67
2022/07/03 12:19:25;;;;;;;1.13;0.80;;;33.90;43.00;;;;;;5032062;28;20581;-67
2022/07/03 12:21:51;;;;;;;1.30;0.80;;;34.00;43.30;;;;;;5028593;28;20629;-67
2022/07/03 12:24:16;;;;;;;0.80;0.80;;;33.90;44.90;;;;;;5032433;28;20208;-67
2022/07/03 12:26:42;;;;;;;1.67;0.80;;;33.90;43.90;;;;;;5032138;28;20571;-67
2022/07/03 12:29:09;;;;;;;1.98;0.70;;;33.70;43.00;;;;;;5030970;28;20206;-66
2022/07/03 12:31:38;;;;;;;2.50;0.80;;;33.40;43.00;;;;;;5031074;28;20193;-66
2022/07/03 12:34:04;;;;;;;0.95;0.70;;;33.20;43.70;;;;;;5031194;28;20185;-66
2022/07/03 12:36:29;;;;;;;1.35;0.65;;;33.20;44.00;;;;;;5030430;28;20178;-67
2022/07/03 12:38:57;;;;;;;2.08;0.93;;;33.10;44.40;;;;;;5032132;28;20229;-66
2022/07/03 12:41:23;;;;;;;0.80;0.80;;;33.30;44.30;;;;;;5031157;28;20166;-67
2022/07/03 12:43:50;;;;;;;1.65;0.50;;;33.70;43.90;;;;;;5032189;28;20177;-63
2022/07/03 12:46:34;;;;;;;2.05;0.60;;;33.90;43.40;;;;;;5031738;28;20217;-65
2022/07/03 12:49:10;;;;;;;1.60;1.08;;;33.80;42.90;;;;;;5028697;28;20252;-64
2022/07/03 12:51:53;;;;;;;2.33;1.00;;;33.70;43.40;;;;;;5035212;28;20181;-65
2022/07/03 12:54:33;;;;;;;1.45;0.60;;;33.60;43.70;;;;;;5030666;28;20177;-66
2022/07/03 13:00:24;;;;;;;1.15;0.98;;;33.80;44.20;;;;;;5033480;28;20188;-66
2022/07/03 13:02:50;;;;;;;1.33;0.60;;;33.90;44.00;;;;;;4988635;28;20244;-66
2022/07/03 13:05:19;;;;;;;5.45;2.80;;;34.20;43.50;;;;;;5036345;28;20193;-65
2022/07/03 13:07:53;;;;;;;1.52;0.93;;;34.20;43.60;;;;;;5039722;28;20182;-66
2022/07/03 13:10:21;;;;;;;1.20;0.90;;;33.80;43.80;;;;;;5030936;28;20178;-66
2022/07/03 13:12:57;;;;;;;0.80;0.80;;;33.80;43.60;;;;;;5031602;28;20182;-66
2022/07/03 13:15:28;;;;;;;0.50;0.50;;;33.70;43.50;;;;;;5013738;28;20224;-65